createdAt,value
2019-05-12T00:00:15.302Z,100.00
2019-05-12T00:02:48.823Z,100.00
2019-05-12T00:05:22.209Z,99.94
2019-05-12T00:07:55.649Z,99.77
2019-05-12T00:10:29.064Z,99.48
2019-05-12T00:13:02.575Z,98.99
2019-05-12T00:15:38.268Z,98.83
2019-05-12T00:18:11.142Z,98.84
2019-05-12T00:20:44.526Z,99.26
2019-05-12T00:23:25.017Z,99.73
2019-05-12T00:25:53.247Z,99.74
2019-05-12T00:28:28.417Z,99.94
2019-05-12T00:31:01.912Z,100.00
2019-05-12T00:33:35.329Z,100.00
2019-05-12T00:36:08.744Z,100.00
2019-05-12T00:38:42.175Z,100.00
2019-05-12T00:41:18.163Z,100.00
2019-05-12T00:43:51.104Z,100.00
2019-05-12T00:46:24.494Z,100.00
2019-05-12T00:48:58.547Z,100.00
2019-05-12T00:51:32.114Z,100.00
2019-05-12T00:54:05.624Z,100.00
2019-05-12T00:56:39.396Z,100.00
2019-05-12T00:59:13.083Z,100.00
2019-05-12T01:01:48.182Z,99.92
2019-05-12T01:04:21.615Z,100.00
2019-05-12T01:06:55.035Z,100.00
2019-05-12T01:09:28.458Z,100.00
2019-05-12T01:12:01.875Z,100.00
2019-05-12T01:14:35.297Z,99.96
2019-05-12T01:17:08.723Z,100.00
2019-05-12T01:19:42.151Z,100.00
2019-05-12T01:22:15.575Z,100.00
2019-05-12T01:24:49.015Z,99.98
2019-05-12T01:27:22.517Z,99.93
2019-05-12T01:29:58.062Z,99.91
2019-05-12T01:32:32.746Z,99.55
2019-05-12T01:35:08.169Z,99.72
2019-05-12T01:37:41.554Z,99.64
2019-05-12T01:40:15.376Z,99.47
2019-05-12T01:42:48.802Z,99.29
2019-05-12T01:45:22.310Z,99.11
2019-05-12T01:47:55.705Z,99.28
2019-05-12T01:50:29.192Z,99.16
2019-05-12T01:53:02.614Z,99.32
2019-05-12T01:55:38.322Z,99.74
2019-05-12T01:58:11.241Z,99.52
2019-05-12T02:00:48.100Z,99.62
2019-05-12T02:03:20.955Z,99.65
2019-05-12T02:05:59.088Z,99.98
2019-05-12T02:08:34.166Z,99.96
2019-05-12T02:11:25.872Z,100.00
2019-05-12T02:13:59.640Z,100.00
2019-05-12T02:16:33.081Z,100.00
2019-05-12T02:19:08.774Z,100.00
2019-05-12T02:21:41.630Z,100.00
2019-05-12T02:24:24.295Z,100.00
2019-05-12T02:26:50.210Z,100.00
2019-05-12T02:29:23.628Z,100.00
2019-05-12T02:31:59.033Z,100.00
2019-05-12T02:34:34.878Z,100.00
2019-05-12T02:37:07.453Z,100.00
2019-05-12T02:39:40.847Z,100.00
2019-05-12T02:42:15.553Z,100.00
2019-05-12T02:44:49.266Z,100.00
2019-05-12T02:47:24.091Z,100.00
2019-05-12T02:49:57.766Z,100.00
2019-05-12T02:52:31.353Z,99.81
2019-05-12T02:55:06.635Z,99.37
2019-05-12T02:57:40.836Z,99.00
2019-05-12T03:00:15.997Z,98.87
2019-05-12T03:02:54.602Z,98.56
2019-05-12T03:05:28.261Z,98.76
2019-05-12T03:08:04.842Z,99.00
2019-05-12T03:10:38.627Z,99.03
2019-05-12T03:13:14.943Z,99.11
2019-05-12T03:15:47.281Z,98.74
2019-05-12T03:18:20.701Z,98.33
2019-05-12T03:20:54.777Z,98.55
2019-05-12T03:23:28.411Z,98.26
2019-05-12T03:26:04.968Z,97.39
2019-05-12T03:28:36.998Z,97.16
2019-05-12T03:31:10.469Z,96.70
2019-05-12T03:33:52.058Z,96.71
2019-05-12T03:36:19.026Z,97.01
2019-05-12T03:38:55.116Z,96.52
2019-05-12T03:41:27.577Z,95.60
2019-05-12T03:44:01.002Z,95.71
2019-05-12T03:46:35.431Z,94.43
2019-05-12T03:49:09.029Z,93.78
2019-05-12T03:51:45.389Z,93.29
2019-05-12T03:54:17.640Z,93.03
2019-05-12T03:56:51.187Z,92.33
2019-05-12T03:59:25.547Z,92.53
2019-05-12T04:01:59.108Z,91.89
2019-05-12T04:04:34.754Z,92.25
2019-05-12T04:07:07.674Z,91.83
2019-05-12T04:09:41.093Z,91.87
2019-05-12T04:12:15.003Z,90.69
2019-05-12T04:14:48.497Z,91.20
2019-05-12T04:17:24.372Z,90.54
2019-05-12T04:19:57.028Z,89.99
2019-05-12T04:22:30.422Z,90.12
2019-05-12T04:25:06.116Z,91.36
2019-05-12T04:27:39.905Z,90.38
2019-05-12T04:30:14.547Z,91.83
2019-05-12T04:32:48.234Z,92.06
2019-05-12T04:35:24.855Z,91.96
2019-05-12T04:37:56.782Z,92.91
2019-05-12T04:40:30.216Z,93.52
2019-05-12T04:43:05.766Z,93.02
2019-05-12T04:45:38.748Z,93.19
2019-05-12T04:48:15.594Z,92.52
2019-05-12T04:50:47.354Z,91.28
2019-05-12T04:53:20.745Z,91.86
2019-05-12T04:56:07.564Z,92.15
2019-05-12T04:58:29.315Z,92.55
2019-05-12T05:01:06.034Z,91.44
2019-05-12T05:03:37.867Z,90.82
2019-05-12T05:06:14.540Z,90.76
2019-05-12T05:08:46.419Z,90.20
2019-05-12T05:11:19.826Z,89.89
2019-05-12T05:13:54.776Z,89.27
2019-05-12T05:16:28.512Z,88.52
2019-05-12T05:19:03.633Z,88.18
2019-05-12T05:21:37.155Z,88.95
2019-05-12T05:24:10.566Z,87.27
2019-05-12T05:26:44.053Z,87.39
2019-05-12T05:29:17.458Z,87.39
2019-05-12T05:31:53.266Z,87.61
2019-05-12T05:34:25.988Z,86.15
2019-05-12T05:37:01.484Z,86.25
2019-05-12T05:39:35.774Z,84.50
2019-05-12T05:42:09.663Z,84.07
2019-05-12T05:44:43.505Z,83.30
2019-05-12T05:47:19.783Z,83.48
2019-05-12T05:49:54.010Z,83.12
2019-05-12T05:52:33.090Z,82.95
2019-05-12T05:55:05.815Z,81.30
2019-05-12T05:57:37.612Z,82.57
2019-05-12T06:00:17.333Z,82.33
2019-05-12T06:02:46.629Z,82.03
2019-05-12T06:05:25.288Z,81.15
2019-05-12T06:07:55.172Z,80.13
2019-05-12T06:10:35.286Z,80.90
2019-05-12T06:13:04.216Z,79.90
2019-05-12T06:15:40.629Z,79.11
2019-05-12T06:18:13.576Z,79.28
2019-05-12T06:20:47.166Z,78.59
2019-05-12T06:23:20.580Z,78.54
2019-05-12T06:25:54.908Z,77.87
2019-05-12T06:28:31.218Z,77.59
2019-05-12T06:31:04.248Z,76.82
2019-05-12T06:33:38.209Z,76.21
2019-05-12T06:36:14.136Z,76.33
2019-05-12T06:38:46.762Z,77.50
2019-05-12T06:41:21.321Z,76.92
2019-05-12T06:43:55.309Z,76.75
2019-05-12T06:46:28.736Z,76.11
2019-05-12T06:49:10.139Z,76.21
2019-05-12T06:51:37.272Z,76.92
2019-05-12T06:54:12.686Z,76.47
2019-05-12T06:56:50.018Z,76.55
2019-05-12T06:59:23.599Z,76.35
2019-05-12T07:02:00.355Z,75.37
2019-05-12T07:04:33.708Z,75.66
2019-05-12T07:07:06.322Z,76.11
2019-05-12T07:09:50.070Z,77.27
2019-05-12T07:12:16.637Z,76.16
2019-05-12T07:14:55.563Z,76.02
2019-05-12T07:17:27.369Z,76.29
2019-05-12T07:20:00.804Z,77.90
2019-05-12T07:22:43.543Z,76.80
2019-05-12T07:25:09.383Z,76.76
2019-05-12T07:27:45.682Z,76.42
2019-05-12T07:30:31.887Z,76.28
2019-05-12T07:33:04.890Z,76.94
2019-05-12T07:35:40.229Z,76.04
2019-05-12T07:38:21.146Z,76.28
2019-05-12T07:40:53.569Z,75.27
2019-05-12T07:43:29.233Z,75.43
2019-05-12T07:46:07.135Z,74.81
2019-05-12T07:48:40.319Z,75.42
2019-05-12T07:51:14.795Z,73.08
2019-05-12T07:53:55.383Z,74.10
2019-05-12T07:56:25.961Z,73.78
2019-05-12T07:58:58.563Z,74.73
2019-05-12T08:01:35.754Z,74.65
2019-05-12T08:04:07.134Z,74.20
2019-05-12T08:06:44.575Z,74.47
2019-05-12T08:09:15.681Z,76.33
2019-05-12T08:11:49.122Z,75.28
2019-05-12T08:14:28.848Z,76.47
2019-05-12T08:17:01.894Z,74.74
2019-05-12T08:19:33.775Z,75.71
2019-05-12T08:22:07.375Z,75.30
2019-05-12T08:24:43.528Z,74.68
2019-05-12T08:27:15.917Z,74.97
2019-05-12T08:29:52.396Z,74.25
2019-05-12T08:32:27.094Z,74.41
2019-05-12T08:34:59.554Z,74.62
2019-05-12T08:37:33.409Z,75.55
2019-05-12T08:40:07.810Z,74.92
2019-05-12T08:42:43.680Z,74.29
2019-05-12T08:45:28.111Z,73.54
2019-05-12T08:47:51.770Z,72.56
2019-05-12T08:50:31.503Z,72.44
2019-05-12T08:53:00.291Z,72.46
2019-05-12T08:55:35.838Z,72.27
2019-05-12T08:58:09.110Z,71.59
2019-05-12T09:00:50.072Z,71.26
2019-05-12T09:03:20.466Z,70.16
2019-05-12T09:05:53.782Z,68.62
2019-05-12T09:08:28.096Z,67.57
2019-05-12T09:11:03.534Z,67.72
2019-05-12T09:13:36.713Z,68.89
2019-05-12T09:16:10.130Z,66.71
2019-05-12T09:18:43.716Z,65.18
2019-05-12T09:21:17.142Z,63.85
2019-05-12T09:23:53.336Z,67.16
2019-05-12T09:26:28.394Z,65.96
2019-05-12T09:29:00.833Z,65.19
2019-05-12T09:31:34.235Z,64.64
2019-05-12T09:34:11.777Z,66.40
2019-05-12T09:36:44.213Z,64.96
2019-05-12T09:39:17.716Z,65.00
2019-05-12T09:41:54.807Z,64.69
2019-05-12T09:44:30.301Z,63.72
2019-05-12T09:47:01.370Z,62.87
2019-05-12T09:49:39.263Z,62.28
2019-05-12T09:52:13.849Z,63.71
2019-05-12T09:54:45.122Z,61.56
2019-05-12T09:57:18.542Z,62.45
2019-05-12T09:59:55.557Z,61.18
2019-05-12T10:02:27.098Z,60.44
2019-05-12T10:05:00.981Z,61.60
2019-05-12T10:07:34.655Z,59.46
2019-05-12T10:10:08.399Z,62.23
2019-05-12T10:12:46.497Z,60.34
2019-05-12T10:15:18.786Z,61.01
2019-05-12T10:17:53.992Z,61.87
2019-05-12T10:20:29.190Z,61.03
2019-05-12T10:23:04.434Z,58.63
2019-05-12T10:25:38.024Z,58.62
2019-05-12T10:28:13.238Z,57.65
2019-05-12T10:30:47.301Z,58.61
2019-05-12T10:33:23.297Z,58.61
2019-05-12T10:35:59.319Z,55.33
2019-05-12T10:38:34.222Z,57.01
2019-05-12T10:41:07.118Z,55.38
2019-05-12T10:43:40.575Z,54.89
2019-05-12T10:46:18.299Z,56.12
2019-05-12T10:48:49.100Z,55.26
2019-05-12T10:51:23.940Z,55.77
2019-05-12T10:54:05.805Z,54.57
2019-05-12T10:56:34.826Z,55.63
2019-05-12T10:59:07.924Z,57.08
2019-05-12T11:01:47.127Z,55.03
2019-05-12T11:04:16.547Z,58.20
2019-05-12T11:06:50.041Z,56.76
2019-05-12T11:09:29.492Z,57.21
2019-05-12T11:11:58.586Z,57.13
2019-05-12T11:14:34.085Z,58.20
2019-05-12T11:17:09.569Z,57.66
2019-05-12T11:19:47.258Z,56.56
2019-05-12T11:22:18.317Z,56.38
2019-05-12T11:24:53.523Z,54.02
2019-05-12T11:27:26.851Z,55.68
2019-05-12T11:30:00.240Z,54.50
2019-05-12T11:32:37.735Z,55.05
2019-05-12T11:35:09.156Z,51.54
2019-05-12T11:37:42.570Z,50.94
2019-05-12T11:40:16.156Z,53.46
2019-05-12T11:42:55.660Z,51.99
2019-05-12T11:45:24.757Z,50.50
2019-05-12T11:48:05.024Z,52.67
2019-05-12T11:50:33.317Z,51.85
2019-05-12T11:53:06.763Z,51.70
2019-05-12T11:55:40.152Z,52.56
2019-05-12T11:58:13.597Z,53.79
2019-05-12T12:00:53.364Z,51.15
2019-05-12T12:03:26.558Z,50.49
2019-05-12T12:05:59.952Z,50.29
2019-05-12T12:08:37.144Z,50.13
2019-05-12T12:11:10.562Z,46.93
2019-05-12T12:13:43.861Z,46.34
2019-05-12T12:16:17.267Z,46.37
2019-05-12T12:18:59.533Z,46.73
2019-05-12T12:21:25.811Z,47.82
2019-05-12T12:23:59.250Z,49.83
2019-05-12T12:26:36.556Z,50.79
2019-05-12T12:29:07.926Z,49.58
2019-05-12T12:31:51.814Z,47.18
2019-05-12T12:34:30.190Z,46.10
2019-05-12T12:37:00.435Z,45.56
2019-05-12T12:39:33.866Z,47.03
2019-05-12T12:42:07.263Z,45.72
2019-05-12T12:44:40.718Z,44.56
2019-05-12T12:47:14.141Z,43.78
2019-05-12T12:49:49.072Z,44.00
2019-05-12T12:52:24.361Z,46.47
2019-05-12T12:54:59.398Z,46.80
2019-05-12T12:57:33.541Z,47.76
2019-05-12T13:00:08.003Z,46.32
2019-05-12T13:02:47.447Z,45.28
2019-05-12T13:05:16.546Z,45.50
2019-05-12T13:07:50.064Z,44.51
2019-05-12T13:10:24.844Z,42.54
2019-05-12T13:13:00.995Z,43.55
2019-05-12T13:15:33.990Z,43.75
2019-05-12T13:18:09.224Z,44.82
2019-05-12T13:20:43.644Z,46.22
2019-05-12T13:23:17.046Z,44.89
2019-05-12T13:25:51.955Z,44.89
2019-05-12T13:28:26.072Z,45.06
2019-05-12T13:31:08.355Z,44.50
2019-05-12T13:33:34.662Z,43.65
2019-05-12T13:36:08.115Z,46.67
2019-05-12T13:38:44.173Z,43.26
2019-05-12T13:41:19.868Z,43.66
2019-05-12T13:43:56.165Z,43.32
2019-05-12T13:46:27.834Z,42.36
2019-05-12T13:49:03.178Z,41.94
2019-05-12T13:51:36.383Z,41.99
2019-05-12T13:54:09.875Z,43.13
2019-05-12T13:56:44.345Z,43.13
2019-05-12T13:59:21.126Z,42.87
2019-05-12T14:01:53.909Z,40.09
2019-05-12T14:04:29.414Z,41.23
2019-05-12T14:07:03.906Z,41.23
2019-05-12T14:09:37.499Z,41.75
2019-05-12T14:12:10.913Z,42.11
2019-05-12T14:14:44.475Z,41.56
2019-05-12T14:17:17.878Z,39.97
2019-05-12T14:19:53.215Z,39.92
2019-05-12T14:22:26.594Z,40.97
2019-05-12T14:25:02.211Z,40.51
2019-05-12T14:27:35.147Z,41.33
2019-05-12T14:30:11.498Z,41.13
2019-05-12T14:32:49.340Z,42.00
2019-05-12T14:35:19.759Z,40.25
2019-05-12T14:37:54.183Z,40.59
2019-05-12T14:40:31.304Z,40.59
2019-05-12T14:43:03.765Z,42.30
2019-05-12T14:45:37.273Z,41.45
2019-05-12T14:48:10.670Z,39.54
2019-05-12T14:50:44.294Z,40.09
2019-05-12T14:53:17.767Z,39.99
2019-05-12T14:55:53.371Z,40.61
2019-05-12T14:58:26.303Z,39.58
2019-05-12T15:00:59.716Z,37.72
2019-05-12T15:03:34.209Z,38.35
2019-05-12T15:06:07.863Z,38.24
2019-05-12T15:08:43.475Z,39.14
2019-05-12T15:11:16.424Z,39.61
2019-05-12T15:13:49.856Z,38.48
2019-05-12T15:16:23.795Z,37.88
2019-05-12T15:18:57.335Z,36.68
2019-05-12T15:21:31.434Z,38.45
2019-05-12T15:24:09.219Z,37.44
2019-05-12T15:26:40.341Z,37.02
2019-05-12T15:29:19.808Z,36.27
2019-05-12T15:31:54.119Z,36.54
2019-05-12T15:34:24.053Z,37.20
2019-05-12T15:37:00.186Z,36.00
2019-05-12T15:39:33.591Z,34.98
2019-05-12T15:42:07.099Z,36.65
2019-05-12T15:44:40.486Z,37.91
2019-05-12T15:47:13.927Z,38.78
2019-05-12T15:49:47.322Z,38.78
2019-05-12T15:52:20.753Z,39.35
2019-05-12T15:54:54.171Z,36.66
2019-05-12T15:57:29.009Z,33.95
2019-05-12T16:00:04.865Z,34.41
2019-05-12T16:02:37.980Z,35.57
2019-05-12T16:05:11.537Z,35.99
2019-05-12T16:07:47.744Z,37.53
2019-05-12T16:10:20.404Z,36.99
2019-05-12T16:12:53.827Z,38.22
2019-05-12T16:15:27.322Z,38.22
2019-05-12T16:18:05.687Z,33.26
2019-05-12T16:20:35.898Z,34.11
2019-05-12T16:23:09.365Z,33.35
2019-05-12T16:25:42.774Z,34.48
2019-05-12T16:28:23.191Z,34.59
2019-05-12T16:30:53.471Z,37.79
2019-05-12T16:33:26.544Z,37.46
2019-05-12T16:36:05.629Z,38.43
2019-05-12T16:38:35.070Z,39.34
2019-05-12T16:41:08.495Z,39.64
2019-05-12T16:43:43.995Z,38.77
2019-05-12T16:46:17.056Z,40.23
2019-05-12T16:48:54.546Z,40.77
2019-05-12T16:51:25.593Z,40.83
2019-05-12T16:53:59.091Z,40.40
2019-05-12T16:56:33.912Z,42.01
2019-05-12T16:59:15.520Z,40.88
2019-05-12T17:01:43.919Z,41.47
2019-05-12T17:04:18.055Z,40.43
2019-05-12T17:06:51.908Z,38.21
2019-05-12T17:09:25.447Z,36.50
2019-05-12T17:11:58.886Z,37.56
2019-05-12T17:14:38.797Z,38.74
2019-05-12T17:17:10.546Z,33.79
2019-05-12T17:19:43.372Z,34.19
2019-05-12T17:22:17.606Z,33.39
2019-05-12T17:24:53.687Z,33.24
2019-05-12T17:27:27.400Z,37.83
2019-05-12T17:30:00.950Z,39.62
2019-05-12T17:32:34.368Z,39.00
2019-05-12T17:35:10.175Z,40.62
2019-05-12T17:37:43.199Z,41.52
2019-05-12T17:40:20.125Z,42.79
2019-05-12T17:42:57.817Z,42.68
2019-05-12T17:45:27.191Z,43.36
2019-05-12T17:48:05.939Z,43.53
2019-05-12T17:50:40.397Z,42.81
2019-05-12T17:53:13.605Z,42.18
2019-05-12T17:55:51.063Z,42.13
2019-05-12T17:58:21.278Z,42.02
2019-05-12T18:00:54.789Z,42.70
2019-05-12T18:03:28.208Z,42.33
2019-05-12T18:06:04.120Z,43.02
2019-05-12T18:08:38.737Z,43.16
2019-05-12T18:11:15.787Z,43.24
2019-05-12T18:13:47.324Z,43.01
2019-05-12T18:16:24.413Z,43.32
2019-05-12T18:18:55.935Z,42.84
2019-05-12T18:21:31.131Z,42.69
2019-05-12T18:24:09.828Z,42.56
2019-05-12T18:26:40.031Z,42.98
2019-05-12T18:29:14.671Z,42.83
2019-05-12T18:31:48.280Z,43.08
2019-05-12T18:34:21.674Z,43.29
2019-05-12T18:36:59.533Z,42.63
2019-05-12T18:39:30.386Z,43.29
2019-05-12T18:42:03.931Z,43.92
2019-05-12T18:44:37.320Z,43.50
2019-05-12T18:47:14.378Z,43.94
2019-05-12T18:49:47.798Z,43.87
2019-05-12T18:52:23.597Z,45.00
2019-05-12T18:54:57.502Z,45.32
2019-05-12T18:57:33.650Z,45.16
2019-05-12T19:00:15.672Z,45.85
2019-05-12T19:02:53.849Z,45.57
2019-05-12T19:05:32.075Z,46.05
2019-05-12T19:08:06.290Z,46.51
2019-05-12T19:10:44.370Z,46.02
2019-05-12T19:13:16.321Z,44.40
2019-05-12T19:15:52.835Z,45.16
2019-05-12T19:18:32.634Z,45.00
2019-05-12T19:21:04.667Z,45.68
2019-05-12T19:23:38.619Z,45.34
2019-05-12T19:26:13.623Z,46.04
2019-05-12T19:28:52.830Z,46.66
2019-05-12T19:31:24.803Z,46.74
2019-05-12T19:34:15.797Z,46.93
2019-05-12T19:36:35.919Z,47.44
2019-05-12T19:39:08.334Z,47.93
2019-05-12T19:41:43.679Z,48.36
2019-05-12T19:44:19.984Z,48.32
2019-05-12T19:46:53.984Z,48.54
2019-05-12T19:49:29.632Z,49.11
2019-05-12T19:52:03.646Z,48.76
2019-05-12T19:54:37.471Z,49.38
2019-05-12T19:57:21.569Z,49.47
2019-05-12T19:59:55.810Z,49.70
2019-05-12T20:02:28.224Z,50.74
2019-05-12T20:05:04.384Z,51.31
2019-05-12T20:07:36.794Z,51.65
2019-05-12T20:10:13.882Z,52.78
2019-05-12T20:12:48.926Z,52.76
2019-05-12T20:15:23.965Z,53.01
2019-05-12T20:17:56.655Z,53.65
2019-05-12T20:20:36.574Z,54.21
2019-05-12T20:23:05.348Z,54.41
2019-05-12T20:25:38.794Z,54.64
2019-05-12T20:28:14.493Z,54.74
2019-05-12T20:30:54.319Z,55.38
2019-05-12T20:33:24.014Z,54.93
2019-05-12T20:35:57.624Z,54.73
2019-05-12T20:38:34.059Z,55.18
2019-05-12T20:41:10.863Z,55.92
2019-05-12T20:43:44.184Z,56.66
2019-05-12T20:46:21.739Z,57.19
2019-05-12T20:48:53.831Z,57.29
2019-05-12T20:51:26.786Z,57.20
2019-05-12T20:54:05.588Z,57.06
2019-05-12T20:56:35.403Z,57.13
2019-05-12T20:59:13.895Z,57.14
2019-05-12T21:01:44.375Z,57.08
2019-05-12T21:04:22.214Z,56.79
2019-05-12T21:06:54.144Z,56.13
2019-05-12T21:09:27.857Z,55.88
2019-05-12T21:12:01.281Z,55.33
2019-05-12T21:14:34.667Z,54.92
2019-05-12T21:17:09.623Z,54.92
2019-05-12T21:19:55.762Z,54.61
2019-05-12T21:22:18.368Z,54.88
2019-05-12T21:24:53.443Z,55.39
2019-05-12T21:27:26.968Z,55.89
2019-05-12T21:30:05.972Z,55.64
2019-05-12T21:32:35.500Z,55.63
2019-05-12T21:35:19.260Z,55.82
2019-05-12T21:37:46.042Z,56.16
2019-05-12T21:40:24.154Z,56.22
2019-05-12T21:42:54.410Z,56.30
2019-05-12T21:45:30.858Z,56.59
2019-05-12T21:48:03.662Z,56.71
2019-05-12T21:50:38.312Z,56.66
2019-05-12T21:53:17.590Z,56.88
2019-05-12T21:55:46.957Z,57.19
2019-05-12T21:58:20.383Z,57.58
2019-05-12T22:01:04.227Z,57.90
2019-05-12T22:03:33.496Z,58.01
2019-05-12T22:06:16.736Z,58.65
2019-05-12T22:08:44.116Z,59.16
2019-05-12T22:11:17.340Z,60.12
2019-05-12T22:13:58.223Z,60.56
2019-05-12T22:16:29.511Z,60.49
2019-05-12T22:19:03.504Z,60.78
2019-05-12T22:21:47.559Z,60.81
2019-05-12T22:24:14.424Z,60.70
2019-05-12T22:26:46.903Z,60.38
2019-05-12T22:29:21.361Z,61.23
2019-05-12T22:31:55.426Z,60.78
2019-05-12T22:34:37.047Z,61.22
2019-05-12T22:37:04.077Z,60.63
2019-05-12T22:39:37.472Z,61.30
2019-05-12T22:42:11.466Z,61.71
2019-05-12T22:44:46.043Z,62.55
2019-05-12T22:47:19.441Z,62.66
2019-05-12T22:49:56.982Z,63.07
2019-05-12T22:52:28.062Z,63.24
2019-05-12T22:55:03.621Z,63.26
2019-05-12T22:57:40.118Z,63.60
2019-05-12T23:00:19.129Z,63.21
2019-05-12T23:02:48.625Z,62.96
2019-05-12T23:05:24.028Z,63.00
2019-05-12T23:08:00.076Z,63.51
2019-05-12T23:10:32.343Z,63.50
2019-05-12T23:13:05.762Z,63.61
2019-05-12T23:15:45.257Z,63.60
2019-05-12T23:18:19.492Z,64.26
2019-05-12T23:20:49.644Z,66.34
2019-05-12T23:23:24.388Z,66.43
2019-05-12T23:26:00.446Z,68.26
2019-05-12T23:28:33.738Z,69.95
2019-05-12T23:31:07.504Z,70.97
2019-05-12T23:33:40.918Z,71.97
2019-05-12T23:36:17.750Z,73.00
2019-05-12T23:38:54.474Z,72.90
2019-05-12T23:41:24.672Z,73.55
2019-05-12T23:43:58.078Z,74.83
2019-05-12T23:46:31.491Z,76.22
2019-05-12T23:49:04.907Z,76.22
2019-05-12T23:51:38.325Z,75.54
2019-05-12T23:54:11.725Z,75.39
2019-05-12T23:56:45.188Z,76.13
2019-05-12T23:59:18.587Z,77.09
